createdAt,value
2022-10-02T00:00:11.311Z,3.40
2022-10-02T00:01:11.383Z,3.90
2022-10-02T00:02:11.339Z,3.50
2022-10-02T00:03:11.389Z,4.50
2022-10-02T00:04:11.364Z,4.30
2022-10-02T00:05:11.249Z,4.20
2022-10-02T00:06:11.260Z,4.20
2022-10-02T00:07:11.236Z,4.10
2022-10-02T00:08:11.238Z,4.10
2022-10-02T00:09:11.232Z,3.80
2022-10-02T00:10:11.194Z,4.00
2022-10-02T00:11:11.181Z,4.40
2022-10-02T00:12:11.202Z,4.10
2022-10-02T00:13:11.168Z,4.30
2022-10-02T00:14:11.145Z,4.30
2022-10-02T00:15:11.188Z,4.00
2022-10-02T00:16:11.171Z,4.00
2022-10-02T00:17:11.143Z,4.50
2022-10-02T00:18:11.130Z,4.20
2022-10-02T00:19:11.136Z,3.90
2022-10-02T00:20:11.089Z,4.20
2022-10-02T00:21:11.154Z,4.10
2022-10-02T00:22:11.058Z,4.10
2022-10-02T00:23:11.056Z,4.70
2022-10-02T00:24:11.049Z,4.50
2022-10-02T00:25:11.030Z,4.20
2022-10-02T00:26:11.103Z,4.00
2022-10-02T00:27:11.010Z,3.90
2022-10-02T00:28:11.076Z,3.80
2022-10-02T00:29:11.025Z,4.50
2022-10-02T00:30:10.973Z,4.00
2022-10-02T00:31:10.962Z,4.10
2022-10-02T00:32:11.001Z,4.70
2022-10-02T00:33:11.098Z,3.80
2022-10-02T00:34:15.187Z,4.10
2022-10-02T00:35:10.919Z,4.20
2022-10-02T00:36:10.921Z,4.30
2022-10-02T00:37:10.898Z,4.20
2022-10-02T00:38:10.928Z,3.90
2022-10-02T00:39:12.900Z,4.20
2022-10-02T00:40:10.890Z,4.30
2022-10-02T00:41:10.944Z,4.10
2022-10-02T00:42:10.854Z,4.30
2022-10-02T00:43:10.825Z,3.80
2022-10-02T00:44:10.813Z,4.50
2022-10-02T00:45:10.991Z,4.00
2022-10-02T00:46:10.906Z,4.20
2022-10-02T00:47:10.797Z,3.90
2022-10-02T00:48:10.773Z,3.80
2022-10-02T00:49:10.923Z,3.80
2022-10-02T00:50:10.982Z,4.20
2022-10-02T00:51:10.743Z,3.70
2022-10-02T00:52:10.732Z,4.00
2022-10-02T00:53:10.717Z,4.00
2022-10-02T00:54:10.873Z,3.60
2022-10-02T00:55:10.698Z,3.80
2022-10-02T00:56:10.701Z,4.00
2022-10-02T00:57:10.677Z,3.60
2022-10-02T00:58:10.659Z,3.90
2022-10-02T00:59:10.690Z,4.50
2022-10-02T01:00:10.636Z,4.30
2022-10-02T01:01:10.700Z,3.70
2022-10-02T01:02:10.663Z,3.80
2022-10-02T01:03:10.635Z,3.80
2022-10-02T01:04:10.614Z,3.50
2022-10-02T01:05:10.607Z,3.80
2022-10-02T01:06:10.591Z,3.90
2022-10-02T01:07:10.563Z,3.60
2022-10-02T01:08:10.570Z,4.20
2022-10-02T01:09:10.544Z,3.60
2022-10-02T01:10:10.529Z,3.20
2022-10-02T01:11:10.537Z,3.20
2022-10-02T01:12:10.505Z,3.60
2022-10-02T01:13:10.505Z,3.30
2022-10-02T01:14:10.482Z,3.40
2022-10-02T01:15:10.473Z,3.40
2022-10-02T01:16:10.520Z,4.00
2022-10-02T01:17:10.451Z,3.90
2022-10-02T01:18:10.437Z,3.00
2022-10-02T01:19:10.428Z,2.90
2022-10-02T01:20:10.436Z,3.00
2022-10-02T01:21:10.424Z,3.20
2022-10-02T01:22:10.393Z,3.10
2022-10-02T01:23:10.383Z,3.20
2022-10-02T01:24:10.373Z,3.30
2022-10-02T01:25:10.385Z,3.10
2022-10-02T01:26:10.350Z,3.10
2022-10-02T01:27:10.339Z,3.40
2022-10-02T01:28:10.439Z,3.50
2022-10-02T01:29:10.317Z,2.90
2022-10-02T01:30:10.307Z,3.60
2022-10-02T01:31:10.501Z,2.90
2022-10-02T01:32:10.286Z,3.50
2022-10-02T01:33:10.297Z,3.10
2022-10-02T01:34:10.264Z,2.90
2022-10-02T01:35:10.249Z,3.10
2022-10-02T01:36:10.236Z,2.50
2022-10-02T01:37:10.244Z,2.80
2022-10-02T01:38:10.238Z,3.40
2022-10-02T01:39:10.241Z,2.90
2022-10-02T01:40:10.198Z,2.90
2022-10-02T01:41:10.231Z,2.90
2022-10-02T01:42:10.175Z,3.20
2022-10-02T01:43:10.172Z,2.60
2022-10-02T01:44:10.193Z,2.80
2022-10-02T01:45:10.141Z,3.10
2022-10-02T01:46:10.211Z,2.90
2022-10-02T01:47:10.117Z,3.00
2022-10-02T01:48:10.137Z,2.90
2022-10-02T01:49:10.101Z,3.00
2022-10-02T01:50:10.085Z,3.30
2022-10-02T01:51:10.126Z,2.80
2022-10-02T01:52:10.063Z,3.00
2022-10-02T01:53:10.072Z,3.60
2022-10-02T01:54:10.045Z,3.00
2022-10-02T01:55:10.029Z,3.00
2022-10-02T01:56:10.069Z,3.00
2022-10-02T01:57:10.006Z,2.80
2022-10-02T01:58:09.998Z,2.90
2022-10-02T01:59:09.986Z,3.10
2022-10-02T02:00:09.993Z,3.00
2022-10-02T02:01:10.057Z,2.90
2022-10-02T02:02:10.037Z,2.70
2022-10-02T02:03:09.939Z,3.00
2022-10-02T02:04:09.958Z,3.40
2022-10-02T02:05:09.922Z,2.70
2022-10-02T02:06:09.941Z,3.10
2022-10-02T02:07:09.895Z,2.60
2022-10-02T02:08:09.889Z,3.00
2022-10-02T02:09:09.895Z,3.10
2022-10-02T02:10:09.863Z,3.10
2022-10-02T02:11:10.113Z,3.10
2022-10-02T02:12:09.850Z,3.10
2022-10-02T02:13:09.828Z,3.00
2022-10-02T02:14:09.836Z,3.00
2022-10-02T02:15:09.826Z,2.80
2022-10-02T02:16:09.842Z,2.70
2022-10-02T02:17:09.787Z,2.80
2022-10-02T02:18:09.774Z,2.60
2022-10-02T02:19:09.761Z,2.90
2022-10-02T02:20:09.807Z,2.70
2022-10-02T02:21:09.739Z,2.90
2022-10-02T02:22:09.764Z,3.30
2022-10-02T02:23:09.720Z,3.20
2022-10-02T02:24:09.707Z,3.30
2022-10-02T02:25:09.714Z,3.40
2022-10-02T02:26:09.782Z,3.30
2022-10-02T02:27:09.683Z,3.00
2022-10-02T02:28:09.756Z,3.40
2022-10-02T02:29:09.653Z,3.40
2022-10-02T02:30:09.647Z,3.40
2022-10-02T02:31:09.712Z,3.50
2022-10-02T02:32:09.620Z,3.10
2022-10-02T02:33:09.625Z,3.30
2022-10-02T02:34:09.602Z,3.10
2022-10-02T02:35:09.584Z,3.10
2022-10-02T02:36:09.594Z,3.40
2022-10-02T02:37:09.564Z,3.50
2022-10-02T02:38:09.552Z,3.30
2022-10-02T02:39:09.538Z,3.00
2022-10-02T02:40:09.537Z,3.80
2022-10-02T02:41:09.582Z,3.60
2022-10-02T02:42:09.506Z,3.50
2022-10-02T02:43:09.505Z,3.70
2022-10-02T02:44:09.483Z,3.50
2022-10-02T02:45:09.472Z,3.70
2022-10-02T02:46:09.526Z,4.10
2022-10-02T02:47:09.469Z,3.70
2022-10-02T02:48:09.440Z,4.00
2022-10-02T02:49:09.431Z,4.10
2022-10-02T02:50:09.417Z,3.80
2022-10-02T02:51:09.405Z,3.30
2022-10-02T02:52:09.417Z,3.60
2022-10-02T02:53:09.417Z,3.50
2022-10-02T02:54:09.395Z,4.20
2022-10-02T02:55:09.364Z,4.20
2022-10-02T02:56:09.372Z,3.80
2022-10-02T02:57:09.355Z,4.20
2022-10-02T02:58:09.375Z,3.90
2022-10-02T02:59:09.343Z,3.80
2022-10-02T03:00:09.308Z,4.10
2022-10-02T03:01:09.347Z,4.40
2022-10-02T03:02:09.351Z,4.00
2022-10-02T03:03:09.271Z,4.00
2022-10-02T03:04:09.260Z,4.10
2022-10-02T03:05:09.247Z,4.10
2022-10-02T03:06:09.244Z,4.00
2022-10-02T03:07:09.249Z,4.30
2022-10-02T03:08:09.215Z,4.20
2022-10-02T03:09:09.210Z,4.60
2022-10-02T03:10:09.202Z,4.90
2022-10-02T03:11:09.182Z,4.50
2022-10-02T03:12:09.172Z,4.70
2022-10-02T03:13:09.287Z,4.10
2022-10-02T03:14:09.159Z,4.70
2022-10-02T03:15:09.141Z,4.40
2022-10-02T03:16:09.223Z,4.60
2022-10-02T03:17:09.116Z,4.00
2022-10-02T03:18:09.125Z,4.60
2022-10-02T03:19:09.089Z,4.30
2022-10-02T03:20:09.081Z,4.50
2022-10-02T03:21:09.083Z,5.00
2022-10-02T03:22:09.081Z,5.10
2022-10-02T03:23:09.988Z,5.20
2022-10-02T03:24:09.039Z,4.80
2022-10-02T03:25:09.050Z,4.60
2022-10-02T03:26:09.032Z,4.60
2022-10-02T03:27:09.004Z,4.20
2022-10-02T03:28:09.012Z,4.50
2022-10-02T03:29:09.055Z,4.90
2022-10-02T03:30:08.996Z,4.40
2022-10-02T03:31:09.061Z,4.60
2022-10-02T03:32:08.946Z,5.60
2022-10-02T03:33:08.959Z,5.20
2022-10-02T03:34:08.923Z,5.40
2022-10-02T03:35:08.913Z,4.90
2022-10-02T03:36:08.899Z,4.60
2022-10-02T03:37:08.890Z,5.00
2022-10-02T03:38:09.085Z,5.70
2022-10-02T03:39:25.885Z,5.50
2022-10-02T03:40:09.876Z,5.30
2022-10-02T03:41:08.873Z,5.00
2022-10-02T03:42:08.842Z,5.00
2022-10-02T03:43:08.833Z,4.80
2022-10-02T03:44:08.810Z,5.10
2022-10-02T03:45:08.847Z,5.00
2022-10-02T03:46:08.820Z,5.40
2022-10-02T03:47:08.779Z,5.30
2022-10-02T03:48:08.765Z,5.50
2022-10-02T03:49:08.755Z,5.80
2022-10-02T03:50:08.746Z,5.10
2022-10-02T03:51:08.757Z,5.50
2022-10-02T03:52:08.722Z,5.40
2022-10-02T03:53:08.714Z,5.40
2022-10-02T03:54:08.746Z,5.50
2022-10-02T03:55:08.712Z,5.40
2022-10-02T03:56:08.675Z,5.30
2022-10-02T03:57:08.674Z,5.20
2022-10-02T03:58:08.654Z,5.60
2022-10-02T03:59:08.644Z,4.90
2022-10-02T04:00:08.661Z,5.10
2022-10-02T04:01:08.640Z,5.20
2022-10-02T04:02:08.697Z,5.20
2022-10-02T04:03:08.647Z,5.10
2022-10-02T04:04:08.585Z,5.40
2022-10-02T04:05:08.599Z,5.20
2022-10-02T04:06:08.564Z,4.90
2022-10-02T04:07:08.554Z,5.80
2022-10-02T04:08:08.542Z,5.40
2022-10-02T04:09:08.532Z,5.50
2022-10-02T04:10:08.548Z,5.40
2022-10-02T04:11:08.540Z,5.40
2022-10-02T04:12:08.496Z,5.40
2022-10-02T04:13:08.519Z,5.30
2022-10-02T04:14:08.476Z,5.60
2022-10-02T04:15:08.486Z,5.10
2022-10-02T04:16:08.549Z,5.00
2022-10-02T04:17:08.462Z,5.20
2022-10-02T04:18:08.456Z,5.80
2022-10-02T04:19:08.420Z,5.00
2022-10-02T04:20:08.407Z,5.00
2022-10-02T04:21:08.423Z,5.00
2022-10-02T04:22:08.384Z,5.10
2022-10-02T04:23:08.377Z,5.10
2022-10-02T04:24:08.367Z,4.70
2022-10-02T04:25:08.356Z,5.10
2022-10-02T04:26:08.349Z,5.00
2022-10-02T04:27:08.362Z,5.60
2022-10-02T04:28:08.404Z,5.30
2022-10-02T04:29:08.311Z,5.00
2022-10-02T04:30:08.295Z,5.40
2022-10-02T04:31:08.383Z,5.70
2022-10-02T04:32:08.294Z,5.70
2022-10-02T04:33:08.280Z,5.40
2022-10-02T04:34:08.272Z,4.80
2022-10-02T04:35:08.241Z,5.00
2022-10-02T04:36:08.239Z,5.00
2022-10-02T04:37:08.226Z,4.80
2022-10-02T04:38:08.227Z,5.50
2022-10-02T04:39:08.199Z,5.30
2022-10-02T04:40:08.209Z,5.40
2022-10-02T04:41:08.208Z,5.30
2022-10-02T04:42:08.183Z,5.70
2022-10-02T04:43:08.151Z,5.50
2022-10-02T04:44:08.143Z,5.70
2022-10-02T04:45:08.129Z,5.90
2022-10-02T04:46:08.158Z,5.20
2022-10-02T04:47:08.134Z,5.40
2022-10-02T04:48:08.093Z,5.10
2022-10-02T04:49:08.107Z,5.70
2022-10-02T04:50:08.078Z,4.90
2022-10-02T04:51:08.084Z,5.40
2022-10-02T04:52:08.071Z,5.20
2022-10-02T04:53:08.040Z,5.70
2022-10-02T04:54:08.072Z,5.10
2022-10-02T04:55:08.028Z,5.50
2022-10-02T04:56:08.056Z,5.50
2022-10-02T04:57:07.995Z,6.00
2022-10-02T04:58:07.982Z,5.30
2022-10-02T04:59:07.971Z,5.60
2022-10-02T05:00:07.960Z,5.40
2022-10-02T05:01:08.142Z,5.50
2022-10-02T05:02:07.977Z,5.60
2022-10-02T05:03:07.947Z,5.50
2022-10-02T05:04:07.919Z,5.50
2022-10-02T05:05:07.944Z,5.40
2022-10-02T05:06:07.916Z,5.00
2022-10-02T05:07:07.883Z,5.80
2022-10-02T05:08:07.877Z,5.20
2022-10-02T05:09:07.915Z,5.30
2022-10-02T05:10:07.848Z,5.40
2022-10-02T05:11:08.836Z,5.30
2022-10-02T05:12:07.849Z,5.80
2022-10-02T05:13:08.903Z,5.30
2022-10-02T05:14:07.805Z,5.30
2022-10-02T05:15:07.792Z,5.80
2022-10-02T05:16:07.928Z,5.70
2022-10-02T05:17:07.775Z,5.50
2022-10-02T05:18:07.795Z,5.60
2022-10-02T05:19:07.747Z,6.30
2022-10-02T05:20:07.734Z,5.00
2022-10-02T05:21:07.743Z,5.90
2022-10-02T05:22:09.376Z,5.20
2022-10-02T05:23:07.710Z,5.50
2022-10-02T05:24:08.754Z,5.70
2022-10-02T05:25:07.690Z,5.40
2022-10-02T05:26:11.970Z,5.40
2022-10-02T05:27:08.666Z,5.90
2022-10-02T05:28:07.742Z,5.50
2022-10-02T05:29:07.636Z,5.40
2022-10-02T05:30:07.631Z,6.10
2022-10-02T05:31:07.680Z,6.00
2022-10-02T05:32:07.600Z,5.80
2022-10-02T05:33:07.591Z,5.20
2022-10-02T05:34:07.578Z,5.90
2022-10-02T05:35:07.570Z,5.50
2022-10-02T05:36:07.621Z,5.60
2022-10-02T05:37:07.564Z,5.70
2022-10-02T05:38:07.540Z,5.30
2022-10-02T05:39:07.538Z,5.70
2022-10-02T05:40:07.573Z,5.20
2022-10-02T05:41:07.503Z,5.70
2022-10-02T05:42:07.496Z,5.50
2022-10-02T05:43:07.482Z,5.70
2022-10-02T05:44:07.467Z,5.00
2022-10-02T05:45:07.457Z,5.20
2022-10-02T05:46:07.467Z,5.80
2022-10-02T05:47:07.525Z,5.30
2022-10-02T05:48:07.423Z,5.30
2022-10-02T05:49:07.416Z,6.00
2022-10-02T05:50:07.400Z,5.20
2022-10-02T05:51:07.567Z,5.90
2022-10-02T05:52:07.397Z,5.60
2022-10-02T05:53:07.384Z,5.80
2022-10-02T05:54:07.357Z,5.30
2022-10-02T05:55:07.349Z,6.00
2022-10-02T05:56:07.352Z,5.50
2022-10-02T05:57:07.323Z,5.20
2022-10-02T05:58:07.337Z,5.50
2022-10-02T05:59:07.327Z,5.60
2022-10-02T06:00:07.322Z,5.60
2022-10-02T06:01:07.293Z,5.60
2022-10-02T06:02:07.352Z,5.20
2022-10-02T06:03:07.276Z,5.70
2022-10-02T06:04:07.243Z,5.50
2022-10-02T06:05:07.231Z,5.90
2022-10-02T06:06:07.218Z,5.70
2022-10-02T06:07:07.229Z,5.10
2022-10-02T06:08:07.201Z,5.30
2022-10-02T06:09:07.241Z,5.60
2022-10-02T06:10:07.199Z,5.90
2022-10-02T06:11:07.167Z,5.40
2022-10-02T06:12:07.151Z,5.70
2022-10-02T06:13:07.144Z,5.50
2022-10-02T06:14:07.153Z,5.10
2022-10-02T06:15:07.122Z,5.50
2022-10-02T06:16:07.144Z,5.60
2022-10-02T06:17:07.098Z,5.50
2022-10-02T06:18:07.093Z,5.60
2022-10-02T06:19:07.100Z,6.10
2022-10-02T06:20:07.067Z,5.30
2022-10-02T06:21:07.054Z,6.00
2022-10-02T06:22:07.041Z,5.70
2022-10-02T06:23:07.034Z,5.70
2022-10-02T06:24:07.038Z,4.90
2022-10-02T06:25:07.046Z,4.80
2022-10-02T06:26:07.001Z,5.30
2022-10-02T06:27:07.007Z,5.20
2022-10-02T06:28:07.000Z,4.90
2022-10-02T06:29:06.991Z,5.20
2022-10-02T06:30:06.951Z,5.20
2022-10-02T06:31:07.010Z,5.50
2022-10-02T06:32:06.929Z,5.40
2022-10-02T06:33:06.945Z,5.40
2022-10-02T06:34:06.908Z,5.60
2022-10-02T06:35:06.898Z,5.70
2022-10-02T06:36:06.885Z,5.30
2022-10-02T06:37:06.895Z,5.50
2022-10-02T06:38:06.870Z,5.70
2022-10-02T06:39:06.852Z,5.60
2022-10-02T06:40:06.842Z,6.20
2022-10-02T06:41:06.878Z,5.80
2022-10-02T06:42:06.818Z,5.10
2022-10-02T06:43:06.811Z,5.80
2022-10-02T06:44:06.797Z,5.40
2022-10-02T06:45:06.786Z,5.30
2022-10-02T06:46:06.861Z,5.60
2022-10-02T06:47:06.764Z,5.70
2022-10-02T06:48:06.756Z,6.00
2022-10-02T06:49:06.741Z,5.50
2022-10-02T06:50:06.973Z,5.40
2022-10-02T06:51:06.740Z,6.00
2022-10-02T06:52:06.707Z,5.70
2022-10-02T06:53:06.696Z,5.70
2022-10-02T06:54:07.010Z,5.20
2022-10-02T06:55:06.675Z,5.80
2022-10-02T06:56:06.661Z,4.70
2022-10-02T06:57:06.668Z,5.50
2022-10-02T06:58:06.639Z,5.20
2022-10-02T06:59:06.656Z,5.60
2022-10-02T07:00:06.618Z,4.90
2022-10-02T07:01:06.696Z,5.50
2022-10-02T07:02:06.626Z,5.20
2022-10-02T07:03:06.607Z,5.60
2022-10-02T07:04:06.575Z,5.50
2022-10-02T07:05:06.566Z,5.50
2022-10-02T07:06:06.550Z,5.80
2022-10-02T07:07:06.564Z,6.00
2022-10-02T07:08:06.558Z,5.90
2022-10-02T07:09:06.834Z,6.00
2022-10-02T07:10:06.505Z,6.10
2022-10-02T07:11:06.495Z,5.80
2022-10-02T07:12:06.485Z,5.90
2022-10-02T07:13:06.491Z,6.50
2022-10-02T07:14:06.480Z,6.60
2022-10-02T07:15:06.454Z,6.10
2022-10-02T07:16:06.479Z,6.10
2022-10-02T07:17:06.430Z,6.60
2022-10-02T07:18:06.416Z,6.10
2022-10-02T07:19:06.426Z,6.50
2022-10-02T07:20:06.397Z,6.10
2022-10-02T07:21:06.384Z,6.10
2022-10-02T07:22:25.918Z,6.30
2022-10-02T07:23:07.882Z,5.60
2022-10-02T07:24:06.349Z,6.00
2022-10-02T07:25:06.342Z,6.20
2022-10-02T07:26:06.327Z,6.40
2022-10-02T07:27:06.316Z,5.60
2022-10-02T07:28:06.426Z,5.70
2022-10-02T07:29:06.310Z,5.30
2022-10-02T07:30:06.282Z,5.80
2022-10-02T07:31:06.296Z,6.10
2022-10-02T07:32:06.259Z,6.00
2022-10-02T07:33:06.270Z,6.40
2022-10-02T07:34:06.259Z,6.10
2022-10-02T07:35:06.228Z,6.60
2022-10-02T07:36:06.221Z,6.20
2022-10-02T07:37:06.206Z,5.60
2022-10-02T07:38:06.213Z,5.90
2022-10-02T07:39:06.204Z,6.20
2022-10-02T07:40:06.174Z,5.80
2022-10-02T07:41:06.165Z,6.10
2022-10-02T07:42:06.157Z,5.30
2022-10-02T07:43:06.157Z,6.10
2022-10-02T07:44:06.143Z,5.50
2022-10-02T07:45:06.134Z,6.20
2022-10-02T07:46:09.213Z,5.50
2022-10-02T07:47:06.182Z,6.40
2022-10-02T07:48:06.104Z,5.70
2022-10-02T07:49:06.091Z,6.00
2022-10-02T07:50:06.085Z,6.10
2022-10-02T07:51:06.048Z,6.00
2022-10-02T07:52:06.038Z,5.70
2022-10-02T07:53:06.027Z,5.70
2022-10-02T07:54:06.018Z,5.90
2022-10-02T07:55:06.004Z,6.50
2022-10-02T07:56:06.483Z,5.80
2022-10-02T07:57:09.768Z,6.20
2022-10-02T07:58:05.973Z,6.10
2022-10-02T07:59:05.985Z,5.80
2022-10-02T08:00:05.977Z,6.00
2022-10-02T08:01:05.955Z,6.30
2022-10-02T08:02:05.980Z,5.90
2022-10-02T08:03:05.943Z,5.50
2022-10-02T08:04:05.906Z,5.50
2022-10-02T08:05:05.893Z,5.40
2022-10-02T08:06:05.903Z,5.40
2022-10-02T08:07:05.890Z,5.20
2022-10-02T08:08:05.862Z,5.60
2022-10-02T08:09:05.877Z,5.00
2022-10-02T08:10:05.842Z,5.40
2022-10-02T08:11:05.825Z,5.40
2022-10-02T08:12:05.837Z,5.40
2022-10-02T08:13:05.810Z,5.50
2022-10-02T08:14:05.793Z,5.70
2022-10-02T08:15:05.785Z,5.40
2022-10-02T08:16:05.833Z,4.90
2022-10-02T08:17:05.803Z,5.30
2022-10-02T08:18:29.940Z,5.30
2022-10-02T08:19:06.737Z,5.30
2022-10-02T08:20:05.747Z,5.60
2022-10-02T08:21:05.736Z,5.70
2022-10-02T08:22:05.707Z,6.00
2022-10-02T08:23:05.692Z,5.50
2022-10-02T08:24:05.686Z,5.80
2022-10-02T08:25:05.696Z,5.90
2022-10-02T08:26:05.661Z,5.80
2022-10-02T08:27:05.649Z,6.10
2022-10-02T08:28:05.700Z,5.80
2022-10-02T08:29:05.624Z,5.80
2022-10-02T08:30:05.636Z,6.40
2022-10-02T08:31:05.627Z,5.90
2022-10-02T08:32:05.652Z,6.10
2022-10-02T08:33:05.594Z,6.40
2022-10-02T08:34:05.609Z,6.30
2022-10-02T08:35:05.577Z,5.80
2022-10-02T08:36:05.572Z,5.70
2022-10-02T08:37:05.554Z,5.80
2022-10-02T08:38:05.524Z,5.50
2022-10-02T08:39:05.515Z,5.20
2022-10-02T08:40:05.525Z,5.60
2022-10-02T08:41:05.489Z,5.80
2022-10-02T08:42:05.718Z,5.50
2022-10-02T08:43:05.467Z,5.70
2022-10-02T08:44:05.460Z,5.50
2022-10-02T08:45:05.450Z,5.40
2022-10-02T08:46:05.529Z,5.70
2022-10-02T08:47:05.443Z,5.30
2022-10-02T08:48:05.413Z,5.30
2022-10-02T08:49:05.416Z,5.70
2022-10-02T08:50:05.389Z,5.60
2022-10-02T08:51:05.383Z,5.20
2022-10-02T08:52:05.390Z,5.60
2022-10-02T08:53:05.355Z,5.60
2022-10-02T08:54:05.348Z,4.90
2022-10-02T08:55:05.331Z,4.70
2022-10-02T08:56:05.323Z,5.10
2022-10-02T08:57:05.329Z,5.50
2022-10-02T08:58:05.300Z,5.10
2022-10-02T08:59:05.290Z,5.50
2022-10-02T09:00:05.301Z,5.40
2022-10-02T09:01:05.331Z,4.90
2022-10-02T09:02:05.306Z,4.90
2022-10-02T09:03:05.244Z,5.50
2022-10-02T09:04:05.235Z,5.20
2022-10-02T09:05:05.398Z,5.20
2022-10-02T09:06:05.302Z,5.40
2022-10-02T09:07:05.198Z,5.30
2022-10-02T09:08:05.188Z,5.10
2022-10-02T09:09:05.176Z,5.20
2022-10-02T09:10:05.188Z,5.00
2022-10-02T09:11:05.156Z,5.10
2022-10-02T09:12:05.148Z,5.10
2022-10-02T09:13:05.154Z,5.20
2022-10-02T09:14:05.122Z,4.80
2022-10-02T09:15:05.120Z,4.80
2022-10-02T09:16:05.147Z,5.60
2022-10-02T09:17:05.087Z,5.70
2022-10-02T09:18:05.102Z,5.40
2022-10-02T09:19:05.068Z,5.30
2022-10-02T09:20:05.078Z,5.60
2022-10-02T09:21:08.152Z,5.40
2022-10-02T09:22:06.035Z,5.00
2022-10-02T09:23:05.043Z,5.00
2022-10-02T09:24:05.009Z,5.30
2022-10-02T09:25:04.997Z,5.50
2022-10-02T09:26:04.993Z,5.60
2022-10-02T09:27:04.978Z,5.40
2022-10-02T09:28:05.039Z,5.70
2022-10-02T09:29:04.971Z,5.30
2022-10-02T09:30:04.948Z,5.80
2022-10-02T09:31:04.938Z,5.50
2022-10-02T09:32:04.920Z,5.00
2022-10-02T09:33:04.929Z,5.40
2022-10-02T09:34:04.899Z,5.30
2022-10-02T09:35:04.887Z,5.30
2022-10-02T09:36:04.876Z,5.70
2022-10-02T09:37:04.883Z,5.20
2022-10-02T09:38:04.876Z,6.20
2022-10-02T09:39:04.840Z,5.60
2022-10-02T09:40:04.836Z,5.80
2022-10-02T09:41:04.818Z,6.50
2022-10-02T09:42:04.810Z,6.50
2022-10-02T09:43:04.816Z,6.30
2022-10-02T09:44:04.896Z,6.20
2022-10-02T09:45:04.775Z,6.20
2022-10-02T09:46:04.838Z,6.10
2022-10-02T09:47:04.753Z,5.60
2022-10-02T09:48:04.770Z,5.80
2022-10-02T09:49:04.729Z,5.40
2022-10-02T09:50:04.720Z,4.80
2022-10-02T09:51:04.728Z,4.60
2022-10-02T09:52:04.696Z,4.80
2022-10-02T09:53:04.703Z,4.60
2022-10-02T09:54:04.696Z,4.60
2022-10-02T09:55:04.683Z,4.30
2022-10-02T09:56:04.654Z,4.80
2022-10-02T09:57:04.659Z,4.80
2022-10-02T09:58:04.630Z,5.30
2022-10-02T09:59:04.637Z,6.30
2022-10-02T10:00:04.616Z,6.60
2022-10-02T10:01:04.725Z,6.80
2022-10-02T10:02:04.665Z,11.90
2022-10-02T10:03:04.574Z,11.30
2022-10-02T10:04:04.588Z,7.70
2022-10-02T10:05:06.347Z,6.60
2022-10-02T10:06:04.545Z,6.30
2022-10-02T10:07:04.533Z,5.70
2022-10-02T10:08:04.544Z,6.50
2022-10-02T10:09:04.522Z,6.00
2022-10-02T10:10:04.496Z,5.90
2022-10-02T10:11:04.484Z,7.10
2022-10-02T10:12:04.474Z,8.60
2022-10-02T10:13:04.482Z,10.80
2022-10-02T10:14:04.452Z,8.90
2022-10-02T10:15:08.632Z,23.30
2022-10-02T10:16:04.519Z,22.50
2022-10-02T10:17:04.418Z,15.00
2022-10-02T10:18:04.430Z,8.50
2022-10-02T10:19:04.403Z,6.90
2022-10-02T10:20:04.389Z,4.70
2022-10-02T10:21:04.379Z,5.20
2022-10-02T10:22:04.573Z,5.00
2022-10-02T10:23:04.352Z,4.80
2022-10-02T10:24:04.341Z,4.80
2022-10-02T10:25:04.369Z,5.10
2022-10-02T10:26:04.322Z,5.60
2022-10-02T10:27:07.440Z,5.40
2022-10-02T10:28:06.144Z,5.70
2022-10-02T10:29:04.341Z,5.60
2022-10-02T10:30:04.350Z,5.50
2022-10-02T10:31:04.267Z,6.00
2022-10-02T10:32:04.289Z,6.30
2022-10-02T10:33:04.242Z,5.80
2022-10-02T10:34:04.255Z,5.70
2022-10-02T10:35:04.225Z,5.50
2022-10-02T10:36:04.213Z,5.60
2022-10-02T10:37:04.199Z,6.40
2022-10-02T10:38:04.187Z,6.60
2022-10-02T10:39:04.195Z,7.00
2022-10-02T10:40:04.171Z,6.90
2022-10-02T10:41:04.170Z,7.30
2022-10-02T10:42:04.169Z,7.30
2022-10-02T10:43:08.026Z,6.40
2022-10-02T10:44:04.140Z,6.10
2022-10-02T10:45:04.111Z,5.00
2022-10-02T10:46:04.175Z,4.90
2022-10-02T10:47:04.126Z,4.80
2022-10-02T10:48:04.133Z,4.80
2022-10-02T10:49:04.105Z,4.70
2022-10-02T10:50:04.054Z,4.80
2022-10-02T10:51:04.047Z,4.70
2022-10-02T10:52:04.030Z,4.40
2022-10-02T10:53:04.055Z,4.50
2022-10-02T10:54:04.014Z,4.80
2022-10-02T10:55:03.998Z,4.40
2022-10-02T10:56:03.989Z,4.00
2022-10-02T10:57:04.050Z,4.00
2022-10-02T10:58:03.984Z,4.40
2022-10-02T10:59:03.954Z,4.80
2022-10-02T11:00:03.963Z,4.30
2022-10-02T11:01:04.061Z,4.60
2022-10-02T11:02:03.969Z,4.10
2022-10-02T11:03:03.910Z,4.30
2022-10-02T11:04:03.907Z,4.20
2022-10-02T11:05:03.905Z,4.20
2022-10-02T11:06:03.878Z,4.20
2022-10-02T11:07:03.884Z,4.50
2022-10-02T11:08:03.857Z,4.00
2022-10-02T11:09:03.841Z,4.10
2022-10-02T11:10:03.831Z,3.70
2022-10-02T11:11:03.824Z,4.10
2022-10-02T11:12:07.590Z,4.30
2022-10-02T11:13:04.834Z,4.40
2022-10-02T11:14:03.786Z,4.40
2022-10-02T11:15:03.801Z,4.10
2022-10-02T11:16:03.835Z,4.10
2022-10-02T11:17:03.752Z,4.50
2022-10-02T11:18:03.741Z,4.80
2022-10-02T11:19:03.731Z,4.40
2022-10-02T11:20:03.719Z,4.60
2022-10-02T11:21:03.709Z,5.10
2022-10-02T11:22:03.721Z,4.60
2022-10-02T11:23:03.685Z,4.50
2022-10-02T11:24:03.677Z,4.60
2022-10-02T11:25:03.662Z,4.50
2022-10-02T11:26:03.687Z,4.70
2022-10-02T11:27:03.664Z,5.10
2022-10-02T11:28:03.687Z,4.70
2022-10-02T11:29:03.633Z,4.70
2022-10-02T11:30:03.614Z,4.50
2022-10-02T11:31:03.622Z,4.90
2022-10-02T11:32:03.639Z,5.00
2022-10-02T11:33:03.575Z,5.20
2022-10-02T11:34:03.570Z,4.60
2022-10-02T11:35:03.554Z,4.80
2022-10-02T11:36:03.566Z,4.70
2022-10-02T11:37:03.532Z,5.10
2022-10-02T11:38:04.236Z,5.20
2022-10-02T11:39:03.509Z,5.20
2022-10-02T11:40:03.500Z,5.90
2022-10-02T11:41:03.489Z,4.80
2022-10-02T11:42:03.499Z,5.20
2022-10-02T11:43:03.462Z,5.20
2022-10-02T11:44:03.456Z,5.70
2022-10-02T11:45:03.460Z,5.60
2022-10-02T11:46:03.568Z,5.70
2022-10-02T11:47:03.597Z,5.60
2022-10-02T11:48:03.415Z,5.80
2022-10-02T11:49:03.399Z,5.50
2022-10-02T11:50:03.386Z,5.40
2022-10-02T11:51:03.374Z,6.40
2022-10-02T11:52:03.366Z,5.70
2022-10-02T11:53:03.377Z,5.20
2022-10-02T11:54:03.361Z,5.90
2022-10-02T11:55:03.332Z,5.10
2022-10-02T11:56:03.321Z,5.60
2022-10-02T11:57:03.337Z,5.70
2022-10-02T11:58:03.301Z,6.10
2022-10-02T11:59:03.287Z,6.20
2022-10-02T12:00:03.319Z,5.40
2022-10-02T12:01:03.307Z,5.00
2022-10-02T12:02:03.305Z,5.00
2022-10-02T12:03:03.356Z,5.50
2022-10-02T12:04:03.232Z,5.50
2022-10-02T12:05:03.240Z,4.60
2022-10-02T12:06:03.206Z,4.30
2022-10-02T12:07:03.203Z,4.50
2022-10-02T12:08:03.185Z,4.60
2022-10-02T12:09:03.173Z,4.80
2022-10-02T12:10:03.185Z,4.10
2022-10-02T12:11:03.156Z,4.00
2022-10-02T12:12:03.145Z,4.00
2022-10-02T12:13:03.131Z,3.90
2022-10-02T12:14:03.150Z,4.30
2022-10-02T12:15:03.130Z,4.30
2022-10-02T12:16:03.095Z,4.30
2022-10-02T12:17:03.105Z,4.30
2022-10-02T12:18:03.074Z,4.50
2022-10-02T12:19:03.062Z,3.90
2022-10-02T12:20:03.076Z,3.80
2022-10-02T12:21:03.042Z,4.20
2022-10-02T12:22:03.046Z,4.50
2022-10-02T12:23:03.039Z,3.80
2022-10-02T12:24:03.010Z,4.20
2022-10-02T12:25:03.003Z,4.00
2022-10-02T12:26:02.987Z,3.70
2022-10-02T12:27:02.979Z,4.30
2022-10-02T12:28:03.136Z,3.90
2022-10-02T12:29:02.967Z,4.50
2022-10-02T12:30:02.942Z,4.30
2022-10-02T12:31:03.082Z,4.50
2022-10-02T12:32:02.928Z,4.70
2022-10-02T12:33:03.075Z,4.10
2022-10-02T12:34:02.896Z,3.60
2022-10-02T12:35:02.894Z,3.90
2022-10-02T12:36:02.875Z,3.60
2022-10-02T12:37:02.867Z,4.50
2022-10-02T12:38:02.894Z,4.00
2022-10-02T12:39:02.849Z,3.60
2022-10-02T12:40:02.835Z,3.70
2022-10-02T12:41:02.823Z,4.00
2022-10-02T12:42:02.817Z,4.20
2022-10-02T12:43:03.105Z,4.30
2022-10-02T12:44:02.797Z,4.00
2022-10-02T12:45:02.781Z,4.20
2022-10-02T12:46:02.884Z,3.70
2022-10-02T12:47:02.756Z,3.90
2022-10-02T12:48:02.761Z,3.40
2022-10-02T12:49:02.750Z,3.60
2022-10-02T12:50:02.717Z,3.60
2022-10-02T12:51:05.541Z,3.50
2022-10-02T12:52:02.696Z,3.50
2022-10-02T12:53:02.706Z,4.00
2022-10-02T12:54:02.675Z,3.50
2022-10-02T12:55:02.663Z,3.60
2022-10-02T12:56:02.651Z,3.60
2022-10-02T12:57:02.640Z,3.50
2022-10-02T12:58:02.647Z,3.50
2022-10-02T12:59:02.617Z,4.10
2022-10-02T13:00:02.628Z,3.70
2022-10-02T13:01:02.617Z,3.80
2022-10-02T13:02:02.631Z,3.70
2022-10-02T13:03:02.671Z,3.90
2022-10-02T13:04:02.560Z,3.60
2022-10-02T13:05:02.592Z,3.50
2022-10-02T13:06:02.539Z,4.10
2022-10-02T13:07:02.528Z,3.60
2022-10-02T13:08:02.516Z,4.10
2022-10-02T13:09:02.509Z,3.50
2022-10-02T13:10:02.516Z,3.20
2022-10-02T13:11:02.485Z,3.00
2022-10-02T13:12:02.471Z,3.20
2022-10-02T13:13:02.461Z,3.00
2022-10-02T13:14:02.470Z,3.20
2022-10-02T13:15:02.441Z,3.30
2022-10-02T13:16:02.429Z,3.30
2022-10-02T13:17:05.181Z,3.40
2022-10-02T13:18:03.404Z,3.10